TimeAKST,TemperatureF,Dew PointF,Humidity,Sea Level PressureIn,VisibilityMPH,Wind Direction,Wind SpeedMPH,Gust SpeedMPH,PrecipitationIn,Events,Conditions,WindDirDegrees,DateUTC
12:53 AM,-16.1,-23.1,71,29.79,10.0,North,3.5,-,N/A,,Clear,10,2013-12-31 09:53:00
1:53 AM,-17.0,-24.0,70,29.81,10.0,Calm,Calm,-,N/A,,Partly Cloudy,0,2013-12-31 10:53:00
3:53 AM,-15.0,-22.0,71,29.82,10.0,Calm,Calm,-,N/A,,Partly Cloudy,0,2013-12-31 12:53:00
4:53 AM,-11.9,-18.9,71,29.83,10.0,NNE,3.5,-,N/A,,Partly Cloudy,30,2013-12-31 13:53:00
5:53 AM,-13.0,-20.0,71,29.83,10.0,NE,5.8,-,N/A,,Partly Cloudy,50,2013-12-31 14:53:00
6:53 AM,-15.0,-22.0,71,29.83,10.0,NE,3.5,-,N/A,,Partly Cloudy,40,2013-12-31 15:53:00
7:53 AM,-13.0,-20.9,68,29.83,10.0,NE,5.8,-,N/A,,Partly Cloudy,50,2013-12-31 16:53:00
8:53 AM,-14.1,-20.0,75,29.84,10.0,Calm,Calm,-,N/A,,Partly Cloudy,0,2013-12-31 17:53:00
9:53 AM,-14.1,-20.9,71,29.84,10.0,NNE,5.8,-,N/A,,Partly Cloudy,30,2013-12-31 18:53:00
10:53 AM,-11.9,-18.9,71,29.85,10.0,Calm,Calm,-,N/A,,Partly Cloudy,0,2013-12-31 19:53:00
11:53 AM,-9.9,-17.0,71,29.84,10.0,NNE,3.5,-,N/A,,Partly Cloudy,30,2013-12-31 20:53:00
12:53 PM,-9.0,-17.0,68,29.83,10.0,NE,5.8,-,N/A,,Partly Cloudy,40,2013-12-31 21:53:00
1:53 PM,-9.9,-17.0,71,29.81,10.0,NNE,4.6,-,N/A,,Partly Cloudy,30,2013-12-31 22:53:00
2:53 PM,-13.0,-18.9,75,29.80,10.0,NNE,4.6,-,N/A,,Partly Cloudy,30,2013-12-31 23:53:00
3:53 PM,-11.0,-18.0,71,29.78,10.0,NE,5.8,-,N/A,,Partly Cloudy,40,2014-01-01 00:53:00
4:53 PM,-11.0,-18.0,71,29.77,10.0,Calm,Calm,-,N/A,,Partly Cloudy,0,2014-01-01 01:53:00
5:53 PM,-11.0,-18.9,68,29.75,10.0,NE,3.5,-,N/A,,Partly Cloudy,40,2014-01-01 02:53:00
6:53 PM,-9.9,-17.0,71,29.71,10.0,NE,4.6,-,N/A,,Partly Cloudy,40,2014-01-01 03:53:00
7:53 PM,-11.0,-18.0,71,29.68,10.0,NNE,5.8,-,N/A,,Partly Cloudy,30,2014-01-01 04:53:00
8:53 PM,-9.0,-17.0,68,29.64,10.0,Calm,Calm,-,N/A,,Partly Cloudy,0,2014-01-01 05:53:00
9:53 PM,-9.9,-18.0,68,29.61,10.0,NNE,4.6,-,N/A,,Scattered Clouds,20,2014-01-01 06:53:00
10:53 PM,-6.0,-13.0,72,29.57,10.0,North,3.5,-,N/A,,Scattered Clouds,10,2014-01-01 07:53:00
11:53 PM,-0.9,-8.0,72,29.55,10.0,NE,5.8,-,N/A,,Mostly Cloudy,40,2014-01-01 08:53:00